Time;durP1;ratioP1;P1;durP2;ratioP2;P2;SDS_P1;SDS_P2;PMS_P1;PMS_P2;Temp;Humidity;BMP_temperature;BMP_pressure;BME280_temperature;BME280_humidity;BME280_pressure;Samples;Min_cycle;Max_cycle;Signal;HPM_P1;HPM_P2
2022/01/03 00:09:30;;;;;;;16.83;3.17;;;;;;;8.62;87.55;100045.59;6243751;23;20027;-77
2022/01/03 00:15:52;;;;;;;26.10;3.13;;;;;;;8.69;87.68;100048.91;6068122;23;20007;-75
2022/01/03 00:18:26;;;;;;;16.30;2.95;;;;;;;8.61;87.44;100035.75;6041377;23;20013;-73
2022/01/03 00:21:11;;;;;;;;;;;;;;;;;;;;;
2022/01/03 00:23:42;;;;;;;20.85;2.70;;;;;;;8.81;87.87;100057.69;6116162;23;20408;-77
2022/01/03 00:26:12;;;;;;;18.02;2.75;;;;;;;8.78;87.46;100052.78;6189234;23;20406;-75
2022/01/03 00:28:57;;;;;;;24.60;2.92;;;;;;;8.78;86.84;100043.78;6222554;23;20003;-76
2022/01/03 00:31:53;;;;;;;19.55;3.78;;;;;;;8.88;87.12;100061.00;6222265;23;20004;-75
2022/01/03 00:34:20;;;;;;;22.13;3.17;;;;;;;8.75;87.38;100039.66;6201146;23;20414;-74
2022/01/03 00:36:52;;;;;;;12.85;2.42;;;;;;;8.86;87.34;100065.09;6197608;23;20851;-75
2022/01/03 00:39:17;;;;;;;8.15;1.95;;;;;;;8.79;87.36;100054.44;6221164;23;20008;-75
2022/01/03 00:41:54;;;;;;;17.10;2.55;;;;;;;8.86;87.45;100063.19;6222006;23;20050;-75
2022/01/03 00:44:27;;;;;;;15.60;2.28;;;;;;;8.74;87.40;100057.09;6222525;23;20035;-76
2022/01/03 00:46:54;;;;;;;16.75;2.58;;;;;;;8.84;87.22;100057.16;6248977;23;20004;-76
2022/01/03 00:49:20;;;;;;;16.08;2.83;;;;;;;8.82;87.59;100062.06;6220492;23;20004;-75
2022/01/03 00:51:46;;;;;;;14.02;2.15;;;;;;;8.82;87.36;100062.06;6168559;23;20027;-75
2022/01/03 00:54:14;;;;;;;22.23;2.25;;;;;;;8.83;87.44;100060.97;6246123;23;20003;-74
2022/01/03 00:56:46;;;;;;;21.60;3.22;;;;;;;8.77;87.40;100056.56;6222217;23;20062;-76
2022/01/03 00:59:23;;;;;;;18.15;2.80;;;;;;;8.87;87.72;100067.53;6222218;23;20027;-74
2022/01/03 01:01:58;;;;;;;27.33;3.17;;;;;;;8.77;87.11;100051.13;6220194;23;20011;-75
2022/01/03 01:04:23;;;;;;;13.40;1.58;;;;;;;8.86;87.25;100054.19;6249726;23;20011;-74
2022/01/03 01:06:53;;;;;;;17.05;3.63;;;;;;;8.84;87.15;100057.16;6195010;22;20330;-74
2022/01/03 01:09:31;;;;;;;;;;;;;;;;;;;;;
2022/01/03 01:12:12;;;;;;;;;;;;;;;;;;;;;
2022/01/03 01:14:42;;;;;;;8.27;2.22;;;;;;;8.81;86.65;100038.59;6251526;23;20438;-76
2022/01/03 01:17:11;;;;;;;11.57;1.80;;;;;;;8.71;86.24;100020.28;6235396;23;20049;-76
2022/01/03 01:19:37;;;;;;;15.65;2.40;;;;;;;8.77;86.74;100040.22;6237743;23;20022;-75
2022/01/03 01:22:02;;;;;;;7.07;1.95;;;;;;;8.82;86.92;100055.78;6206591;23;20015;-76
2022/01/03 01:24:33;;;;;;;15.10;2.05;;;;;;;8.80;86.73;100047.88;6256341;23;20008;-75
2022/01/03 01:29:43;;;;;;;19.83;4.50;;;;;;;8.78;86.86;100047.31;6231721;23;20070;-73
2022/01/03 01:32:16;;;;;;;9.13;2.35;;;;;;;8.79;86.95;100054.44;6241988;23;20034;-76
2022/01/03 01:34:49;;;;;;;21.70;2.38;;;;;;;8.70;86.76;100034.16;6242087;23;20000;-73
2022/01/03 01:37:18;;;;;;;9.88;2.70;;;;;;;8.77;86.83;100039.41;6243691;23;20004;-74
2022/01/03 01:39:47;;;;;;;19.35;3.15;;;;;;;8.80;86.26;100056.03;6215114;23;20016;-74
2022/01/03 01:42:15;;;;;;;20.67;3.03;;;;;;;8.77;86.14;100053.84;6241423;23;20031;-75
2022/01/03 01:44:46;;;;;;;16.63;2.63;;;;;;;8.80;86.17;100050.59;6188583;23;20000;-74
2022/01/03 01:47:14;;;;;;;15.48;2.13;;;;;;;8.85;86.06;100047.91;6242630;23;20019;-75
2022/01/03 01:49:45;;;;;;;15.02;2.85;;;;;;;8.84;86.26;100040.81;6190995;23;20012;-76
2022/01/03 01:52:24;;;;;;;16.35;2.53;;;;;;;8.82;86.36;100047.59;6244142;23;20081;-73
2022/01/03 01:55:06;;;;;;;14.40;2.28;;;;;;;8.86;85.58;100043.25;6244290;23;20035;-75
2022/01/03 01:57:53;;;;;;;26.13;2.13;;;;;;;8.86;85.87;100044.09;6217487;23;20031;-76
2022/01/03 02:00:19;;;;;;;20.50;2.85;;;;;;;8.85;85.75;100038.91;6244301;23;20010;-73
2022/01/03 02:03:03;;;;;;;17.70;3.17;;;;;;;8.82;85.60;100043.00;6214833;23;20095;-74
2022/01/03 02:05:39;;;;;;;16.25;2.92;;;;;;;8.80;85.85;100039.69;6243611;23;20008;-74
2022/01/03 02:08:12;;;;;;;21.48;2.70;;;;;;;8.74;85.34;100062.56;6216232;23;20008;-73
2022/01/03 02:10:41;;;;;;;12.98;2.22;;;;;;;8.80;85.67;100044.31;6242791;23;20028;-73
2022/01/03 02:13:08;;;;;;;6.75;1.75;;;;;;;8.73;85.87;100047.28;6243716;23;20007;-73
2022/01/03 02:15:36;;;;;;;15.18;2.53;;;;;;;8.77;85.72;100042.94;6244744;23;20008;-73
2022/01/03 02:18:02;;;;;;;20.98;2.13;;;;;;;8.77;85.36;100037.50;6244880;23;20319;-73
2022/01/03 02:20:29;;;;;;;17.25;2.35;;;;;;;8.72;85.39;100026.56;6243920;23;20097;-73
2022/01/03 02:22:55;;;;;;;12.48;2.08;;;;;;;8.70;85.33;100039.63;6217013;23;20008;-73
2022/01/03 02:25:23;;;;;;;14.75;2.33;;;;;;;8.72;85.75;100037.47;6216053;23;20008;-73
2022/01/03 02:27:52;;;;;;;10.63;2.20;;;;;;;8.71;85.42;100035.81;6243909;23;20482;-73
2022/01/03 02:30:23;;;;;;;10.43;2.03;;;;;;;8.66;85.69;100033.06;6192075;23;20024;-73
2022/01/03 02:32:48;;;;;;;14.00;1.80;;;;;;;8.63;85.55;100036.31;6213404;23;20007;-72
2022/01/03 02:35:14;;;;;;;13.48;3.05;;;;;;;8.56;85.46;100034.63;6242183;23;20004;-73
2022/01/03 02:37:43;;;;;;;13.27;1.80;;;;;;;8.62;85.80;100032.78;6190276;23;19996;-73
2022/01/03 02:40:11;;;;;;;11.50;1.73;;;;;;;8.58;85.71;100028.13;6243381;23;20008;-72
2022/01/03 02:42:38;;;;;;;16.58;2.05;;;;;;;8.56;85.45;100031.91;6245073;23;20031;-73
2022/01/03 02:45:06;;;;;;;18.95;2.38;;;;;;;8.63;85.22;100044.47;6244086;23;20011;-74
2022/01/03 02:47:32;;;;;;;14.05;1.95;;;;;;;8.58;85.49;100026.19;6217013;23;20032;-73
2022/01/03 02:49:57;;;;;;;17.45;2.15;;;;;;;8.59;85.31;100027.03;6192351;23;20015;-73
2022/01/03 02:52:23;;;;;;;16.35;2.47;;;;;;;8.59;85.03;100032.47;6192885;23;20015;-73
2022/01/03 02:54:49;;;;;;;20.42;1.77;;;;;;;8.62;85.09;100023.78;6243013;23;20327;-73
2022/01/03 02:57:14;;;;;;;13.32;1.55;;;;;;;8.62;85.25;100021.88;6244147;23;20012;-73
2022/01/03 02:59:40;;;;;;;12.85;2.40;;;;;;;8.60;84.73;100018.59;6194051;23;20012;-73
2022/01/03 03:02:06;;;;;;;14.75;1.83;;;;;;;8.67;84.65;100019.19;6216638;23;20067;-73
2022/01/03 03:04:32;;;;;;;24.80;2.28;;;;;;;8.63;84.79;100023.53;6216470;23;20004;-73
2022/01/03 03:06:57;;;;;;;9.50;1.70;;;;;;;8.66;84.55;100011.25;6244140;22;20066;-72
2022/01/03 03:09:23;;;;;;;14.73;2.65;;;;;;;8.66;84.00;100027.59;6193781;23;20013;-72
2022/01/03 03:11:49;;;;;;;12.13;2.33;;;;;;;8.65;84.16;100010.44;6242910;23;20040;-73
2022/01/03 03:14:15;;;;;;;19.20;2.22;;;;;;;8.65;84.32;100017.81;6218603;23;20019;-73
2022/01/03 03:16:41;;;;;;;18.58;2.58;;;;;;;8.67;84.14;100029.25;6243219;23;20004;-72
2022/01/03 03:19:09;;;;;;;13.95;1.35;;;;;;;8.60;84.00;100013.16;6217884;23;20308;-73
2022/01/03 03:21:34;;;;;;;19.27;2.53;;;;;;;8.64;83.75;100003.34;6243976;23;20004;-73
2022/01/03 03:24:00;;;;;;;18.10;2.33;;;;;;;8.64;83.69;100008.78;6218541;23;20558;-73
2022/01/03 03:26:25;;;;;;;16.13;1.60;;;;;;;8.67;83.25;99999.25;6218263;23;20008;-73
2022/01/03 03:28:54;;;;;;;15.50;2.20;;;;;;;8.71;83.45;99998.47;6243680;23;20069;-75
2022/01/03 03:31:19;;;;;;;12.93;2.17;;;;;;;8.74;83.43;100006.13;6245349;23;20004;-75
2022/01/03 03:33:45;;;;;;;12.85;1.67;;;;;;;8.84;83.26;100001.81;6193008;23;20312;-75
2022/01/03 03:36:11;;;;;;;13.85;1.70;;;;;;;8.87;82.94;99991.19;6218300;23;20019;-75
2022/01/03 03:38:37;;;;;;;21.23;2.13;;;;;;;8.86;82.87;99978.66;6218495;23;20004;-75
2022/01/03 03:41:02;;;;;;;15.55;2.10;;;;;;;8.96;82.82;99996.97;6218184;23;20026;-75
2022/01/03 03:43:30;;;;;;;14.32;2.67;;;;;;;8.93;82.68;99981.13;6219281;23;20014;-75
2022/01/03 03:45:56;;;;;;;11.35;1.73;;;;;;;8.98;82.71;99975.72;6219132;23;20438;-75
2022/01/03 03:48:22;;;;;;;17.33;1.85;;;;;;;8.96;82.24;99972.41;6249157;23;19999;-75
2022/01/03 03:50:47;;;;;;;7.72;2.15;;;;;;;8.97;82.56;99973.25;6254005;23;20015;-75
2022/01/03 03:53:13;;;;;;;18.17;1.88;;;;;;;8.93;82.10;99993.97;6255091;23;19984;-73
2022/01/03 03:55:39;;;;;;;13.50;2.42;;;;;;;8.87;82.36;99979.47;6239308;23;19984;-74
2022/01/03 03:58:05;;;;;;;22.67;1.48;;;;;;;8.87;82.28;99983.00;6267299;23;20008;-73
2022/01/03 04:00:33;;;;;;;10.55;2.20;;;;;;;8.84;82.13;99975.38;6267821;23;20039;-72
2022/01/03 04:02:59;;;;;;;13.95;1.75;;;;;;;8.86;82.31;100000.47;6249022;23;20004;-73
2022/01/03 04:05:24;;;;;;;19.35;1.85;;;;;;;8.82;82.34;99983.00;6220494;23;20019;-73
2022/01/03 04:07:50;;;;;;;13.38;2.35;;;;;;;8.86;82.25;99973.22;6245039;22;20789;-73
2022/01/03 04:10:16;;;;;;;12.60;1.92;;;;;;;8.90;82.83;99971.56;6243638;23;20008;-73
2022/01/03 04:12:43;;;;;;;12.70;1.73;;;;;;;8.97;82.39;99962.34;6218675;23;20054;-73
2022/01/03 04:15:09;;;;;;;11.90;2.13;;;;;;;8.97;82.75;99974.06;6216976;23;20014;-73
2022/01/03 04:17:35;;;;;;;15.68;1.95;;;;;;;8.94;81.97;99984.69;6245073;23;20007;-73
2022/01/03 04:20:01;;;;;;;4.93;1.52;;;;;;;8.95;82.26;99975.41;6216985;23;20008;-74
2022/01/03 04:22:26;;;;;;;12.32;1.88;;;;;;;9.02;82.35;99973.25;6217665;23;20038;-74
2022/01/03 04:24:52;;;;;;;10.38;1.63;;;;;;;9.05;82.41;99961.81;6217923;23;20019;-74
2022/01/03 04:27:17;;;;;;;17.77;1.77;;;;;;;9.02;82.23;99948.72;6218113;23;20004;-74
2022/01/03 04:29:43;;;;;;;12.25;2.13;;;;;;;9.07;82.57;99970.56;6218466;23;20008;-74
2022/01/03 04:32:08;;;;;;;11.70;2.20;;;;;;;9.12;82.38;99945.22;6245152;23;20035;-73
2022/01/03 04:34:34;;;;;;;18.25;2.75;;;;;;;9.16;82.99;99949.84;6216603;23;20062;-73
2022/01/03 04:37:02;;;;;;;25.95;2.88;;;;;;;9.20;82.68;99942.78;6220173;23;20058;-74
2022/01/03 04:42:30;;;;;;;15.48;2.75;;;;;;;9.30;82.13;99935.69;6243419;23;20095;-74
2022/01/03 04:44:56;;;;;;;19.83;2.90;;;;;;;9.26;82.53;99930.78;6215727;23;20388;-74
2022/01/03 04:47:22;;;;;;;11.32;2.10;;;;;;;9.33;82.97;99937.88;6215408;23;20024;-74
2022/01/03 04:49:48;;;;;;;12.38;1.95;;;;;;;9.38;82.77;99932.44;6241454;23;20084;-74
2022/01/03 04:52:13;;;;;;;22.15;2.95;;;;;;;9.38;81.90;99933.25;6189863;23;20158;-74
2022/01/03 04:54:39;;;;;;;17.67;2.45;;;;;;;9.43;82.39;99927.84;6241546;23;20008;-74
2022/01/03 04:57:07;;;;;;;15.27;1.88;;;;;;;9.50;82.01;99915.81;6214639;23;20087;-74
2022/01/03 04:59:32;;;;;;;27.45;3.45;;;;;;;9.51;82.25;99918.28;6190157;23;20008;-74
2022/01/03 05:02:00;;;;;;;22.02;3.80;;;;;;;9.48;81.57;99918.81;6242319;23;20035;-76
2022/01/03 05:04:25;;;;;;;16.10;1.90;;;;;;;9.54;81.44;99923.19;6190495;23;20027;-76
2022/01/03 05:06:51;;;;;;;15.10;2.92;;;;;;;9.54;81.35;99917.72;6241961;22;20087;-75
2022/01/03 05:09:16;;;;;;;9.77;2.40;;;;;;;9.60;81.45;99921.28;6216181;23;20008;-75
2022/01/03 05:11:42;;;;;;;18.67;2.80;;;;;;;9.59;81.17;99931.41;6189094;23;20066;-74
2022/01/03 05:14:07;;;;;;;10.20;1.73;;;;;;;9.67;81.10;99926.50;6213590;23;20044;-75
2022/01/03 05:16:33;;;;;;;16.60;2.45;;;;;;;9.67;81.37;99926.50;6213117;23;20036;-75
2022/01/03 05:18:58;;;;;;;17.27;2.30;;;;;;;9.66;81.46;99919.38;6213648;23;20419;-74
2022/01/03 05:21:25;;;;;;;15.98;2.42;;;;;;;9.71;82.00;99916.66;6216834;23;20015;-75
2022/01/03 05:23:51;;;;;;;24.80;2.65;;;;;;;9.63;81.63;99922.66;6189691;23;20011;-75
2022/01/03 05:26:16;;;;;;;31.23;3.35;;;;;;;9.60;81.14;99927.56;6166083;23;20008;-75
2022/01/03 05:28:47;;;;;;;19.63;2.90;;;;;;;9.65;81.42;99923.19;6191057;23;20031;-74
2022/01/03 05:31:15;;;;;;;29.25;3.70;;;;;;;9.68;82.13;99922.66;6241945;23;20023;-74
2022/01/03 05:33:40;;;;;;;16.75;2.13;;;;;;;9.72;81.92;99913.63;6216055;23;20048;-74
2022/01/03 05:36:09;;;;;;;12.85;3.30;;;;;;;9.77;81.76;99908.19;6212911;23;20482;-74
2022/01/03 05:38:35;;;;;;;25.17;3.90;;;;;;;9.74;81.29;99902.47;6215035;23;20015;-73
2022/01/03 05:41:00;;;;;;;18.70;2.60;;;;;;;9.79;81.50;99900.53;6242203;23;20008;-74
2022/01/03 05:43:26;;;;;;;31.80;3.28;;;;;;;9.84;81.71;99896.16;6214178;23;20043;-72
2022/01/03 05:45:51;;;;;;;21.30;3.30;;;;;;;9.83;81.88;99889.06;6241467;23;20054;-75
2022/01/03 05:48:16;;;;;;;20.02;4.20;;;;;;;9.85;81.46;99884.16;6214752;23;20012;-75
2022/01/03 05:50:42;;;;;;;19.77;3.05;;;;;;;9.91;81.70;99889.31;6190354;23;20366;-75
2022/01/03 05:53:07;;;;;;;28.88;3.38;;;;;;;9.91;81.79;99877.59;6241107;23;20012;-75
2022/01/03 05:55:33;;;;;;;29.48;3.95;;;;;;;9.88;81.95;99889.88;6215450;23;20012;-74
2022/01/03 05:57:58;;;;;;;33.97;3.78;;;;;;;9.89;81.43;99880.59;6186662;23;20012;-75
2022/01/03 06:00:25;;;;;;;22.02;4.40;;;;;;;9.91;81.32;99881.13;6189745;23;20106;-75
2022/01/03 06:02:57;;;;;;;26.42;4.13;;;;;;;9.84;81.85;99866.13;6242205;23;20471;-74
2022/01/03 06:08:05;;;;;;;21.92;3.55;;;;;;;9.92;81.84;99874.59;6240580;22;20019;-76
2022/01/03 06:10:30;;;;;;;23.58;3.85;;;;;;;9.95;81.73;99857.66;6241330;23;20012;-75
2022/01/03 06:12:56;;;;;;;23.50;4.18;;;;;;;9.90;81.35;99868.59;6241497;23;20004;-75
2022/01/03 06:15:25;;;;;;;23.10;3.45;;;;;;;9.99;81.85;99876.22;6216386;23;20018;-74
2022/01/03 06:17:52;;;;;;;27.25;3.83;;;;;;;9.99;81.50;99873.47;6241113;23;20062;-74
2022/01/03 06:20:18;;;;;;;15.77;3.15;;;;;;;9.99;81.06;99860.66;6213752;23;20036;-75
2022/01/03 06:22:44;;;;;;;18.45;2.53;;;;;;;10.04;80.89;99859.81;6215221;23;20096;-75
2022/01/03 06:25:12;;;;;;;36.15;5.13;;;;;;;9.99;81.11;99857.09;6214647;23;20062;-74
2022/01/03 06:27:38;;;;;;;28.02;3.67;;;;;;;10.00;81.07;99864.19;6214342;23;20066;-74
2022/01/03 06:30:06;;;;;;;19.55;2.60;;;;;;;9.93;80.75;99878.16;6215852;23;20088;-74
2022/01/03 06:32:32;;;;;;;30.05;4.90;;;;;;;9.92;80.84;99855.47;6215558;23;20012;-75
2022/01/03 06:34:57;;;;;;;13.82;2.40;;;;;;;9.96;80.65;99864.75;6214875;23;20330;-74
2022/01/03 06:37:23;;;;;;;12.13;2.50;;;;;;;9.97;80.68;99849.16;6214957;23;20004;-73
2022/01/03 06:39:49;;;;;;;18.98;3.58;;;;;;;10.03;80.62;99859.00;6166509;23;20008;-75
2022/01/03 06:42:17;;;;;;;20.88;2.85;;;;;;;10.01;80.33;99849.44;6242062;23;20011;-74
2022/01/03 06:44:43;;;;;;;16.92;2.63;;;;;;;9.98;80.37;99844.53;6215480;23;20012;-74
2022/01/03 06:47:09;;;;;;;18.83;2.67;;;;;;;9.85;79.96;99846.72;6189860;23;20011;-74
2022/01/03 06:49:35;;;;;;;12.10;2.22;;;;;;;9.93;80.18;99854.38;6238357;23;20061;-74
2022/01/03 06:52:00;;;;;;;15.35;3.05;;;;;;;9.83;79.75;99848.94;6215570;23;20012;-74
2022/01/03 06:54:26;;;;;;;18.23;2.28;;;;;;;9.79;79.54;99854.13;6189149;23;20016;-74
2022/01/03 06:56:51;;;;;;;12.02;2.22;;;;;;;9.89;79.18;99853.28;6189145;23;20030;-75
2022/01/03 06:59:20;;;;;;;19.05;3.75;;;;;;;9.84;79.45;99845.13;6215480;23;20023;-74
2022/01/03 07:01:45;;;;;;;23.73;1.98;;;;;;;9.74;79.03;99845.13;6215071;23;20082;-74
2022/01/03 07:04:10;;;;;;;13.38;1.88;;;;;;;9.75;79.51;99847.59;6216205;23;20008;-74
2022/01/03 07:06:47;;;;;;;7.65;1.75;;;;;;;9.74;79.10;99847.88;6214562;23;20018;-74
2022/01/03 07:09:16;;;;;;;14.00;1.80;;;;;;;9.79;78.91;99853.31;6241940;22;20327;-75
2022/01/03 07:11:41;;;;;;;14.38;2.53;;;;;;;9.73;78.59;99843.50;6216806;23;20016;-74
2022/01/03 07:19:37;;;;;;;13.63;2.10;;;;;;;9.65;78.28;99846.75;6242600;23;20074;-74
2022/01/03 07:22:05;;;;;;;14.43;1.30;;;;;;;9.67;77.82;99845.41;6242798;23;20046;-77
2022/01/03 07:24:41;;;;;;;8.52;1.55;;;;;;;9.63;77.93;99832.56;6213192;23;20019;-71
2022/01/03 07:27:19;;;;;;;2.67;0.77;;;;;;;9.58;77.49;99820.56;6214305;23;20015;-71
2022/01/03 07:29:47;;;;;;;8.02;1.00;;;;;;;9.56;77.40;99814.56;6213754;23;20335;-72
2022/01/03 07:32:14;;;;;;;10.63;1.27;;;;;;;9.57;77.10;99823.56;6240195;23;20087;-75
2022/01/03 07:34:49;;;;;;;7.15;1.02;;;;;;;9.59;76.44;99841.31;6216092;23;20004;-75
2022/01/03 07:37:14;;;;;;;3.80;0.50;;;;;;;9.52;76.03;99835.31;6193504;23;20012;-76
2022/01/03 07:39:40;;;;;;;10.57;1.25;;;;;;;9.61;76.18;99832.84;6191208;23;20427;-75
2022/01/03 07:42:14;;;;;;;6.03;0.90;;;;;;;9.53;75.38;99822.47;6191668;23;20035;-75
2022/01/03 07:44:40;;;;;;;6.00;0.90;;;;;;;9.62;74.58;99842.66;6218092;23;20043;-77
2022/01/03 07:47:06;;;;;;;5.25;0.80;;;;;;;9.70;74.67;99833.13;6243061;23;20230;-78
2022/01/03 07:49:31;;;;;;;7.25;1.00;;;;;;;9.61;74.14;99830.13;6240948;23;20016;-79
2022/01/03 07:51:58;;;;;;;3.72;0.85;;;;;;;9.67;74.17;99839.13;6217473;23;20018;-77
2022/01/03 07:54:23;;;;;;;4.03;0.50;;;;;;;9.76;73.59;99848.41;6215865;23;20083;-77
2022/01/03 07:56:49;;;;;;;4.65;0.68;;;;;;;9.71;73.37;99826.53;6216143;23;20023;-78
2022/01/03 07:59:45;;;;;;;;;;;;;;;;;;;;;
2022/01/03 08:05:10;;;;;;;4.03;1.00;;;;;;;9.55;73.57;99840.22;6157867;23;20084;-77
2022/01/03 08:52:42;;;;;;;5.18;0.77;;;;;;;9.30;72.79;99840.19;6233627;22;20020;-77
2022/01/03 08:55:27;;;;;;;;;;;;;;;;;;;;;
2022/01/03 08:57:58;;;;;;;5.03;0.30;;;;;;;9.31;73.45;99836.41;6242022;23;20087;-78
2022/01/03 09:00:27;;;;;;;2.20;0.60;;;;;;;9.26;73.06;99846.22;6216377;23;20092;-80
2022/01/03 09:03:15;;;;;;;1.70;0.63;;;;;;;9.24;73.37;99826.56;6216833;23;20007;-81
2022/01/03 09:05:49;;;;;;;0.73;0.40;;;;;;;9.23;73.68;99824.94;6217826;23;20004;-81
2022/01/03 09:08:23;;;;;;;1.20;0.28;;;;;;;9.26;73.73;99829.84;6213293;23;20056;-78
2022/01/03 09:10:56;;;;;;;3.33;0.50;;;;;;;9.25;73.53;99833.66;6216473;23;20608;-78
2022/01/03 09:13:22;;;;;;;1.55;0.50;;;;;;;9.40;73.38;99853.84;6215629;23;20702;-79
2022/01/03 09:16:04;;;;;;;2.13;0.63;;;;;;;9.26;73.63;99834.50;6213169;23;20458;-79
2022/01/03 09:18:34;;;;;;;5.63;2.35;;;;;;;9.24;73.80;99847.56;6235767;23;20004;-78
2022/01/03 09:21:20;;;;;;;3.55;0.50;;;;;;;9.38;74.29;99853.31;6212992;23;20008;-78
2022/01/03 09:30:05;;;;;;;;;;;;;;;;;;;;;
2022/01/03 09:32:37;;;;;;;3.03;0.73;;;;;;;9.48;75.10;99853.31;6187036;23;20584;-78
2022/01/03 09:35:26;;;;;;;7.20;1.20;;;;;;;9.63;75.00;99855.22;6242453;23;20038;-77
2022/01/03 09:37:59;;;;;;;2.33;0.73;;;;;;;9.65;75.16;99847.59;6219893;23;20008;-77
2022/01/03 09:41:10;;;;;;;9.80;1.30;;;;;;;9.48;74.80;99830.69;6191279;23;20015;-76
2022/01/03 09:43:18;;;;;;;2.25;0.88;;;;;;;9.61;75.12;99836.38;6217856;23;20378;-76
2022/01/03 09:46:16;;;;;;;9.23;1.17;;;;;;;9.52;75.17;99832.59;6239795;23;20012;-85
2022/01/03 09:48:52;;;;;;;6.13;1.25;;;;;;;9.59;75.05;99833.13;6205356;23;20008;-82
2022/01/03 09:51:36;;;;;;;7.93;0.80;;;;;;;9.63;74.65;99821.66;6211871;23;20016;-83
2022/01/03 09:54:16;;;;;;;4.32;1.00;;;;;;;9.73;75.31;99838.03;6212710;23;20008;-83
2022/01/03 09:56:44;;;;;;;4.10;0.75;;;;;;;9.68;74.71;99810.72;6214484;23;20001;-84
2022/01/03 09:59:10;;;;;;;3.45;0.60;;;;;;;9.86;75.01;99840.19;6186953;23;20083;-77
2022/01/03 10:01:40;;;;;;;6.05;0.73;;;;;;;9.72;74.83;99795.44;6213633;23;20004;-80
2022/01/03 10:04:05;;;;;;;5.50;1.20;;;;;;;9.79;75.09;99821.34;6211821;23;20011;-79
2022/01/03 10:20:59;;;;;;;;;;;;;;;;;;;;;
2022/01/03 10:24:27;;;;;;;4.20;1.00;;;;;;;10.04;74.74;99799.72;5954492;24;20045;-81
2022/01/03 10:27:17;;;;;;;4.97;0.70;;;;;;;10.08;75.22;99789.88;5931197;23;20036;-82
2022/01/03 10:33:44;;;;;;;5.05;0.88;;;;;;;10.33;75.06;99812.75;5955524;24;20019;-79
2022/01/03 10:37:21;;;;;;;;;;;;;;;;;;;;;
2022/01/03 10:39:47;;;;;;;4.53;1.17;;;;;;;10.42;74.58;99800.97;5970618;23;20086;-79
2022/01/03 10:56:48;;;;;;;;;;;;;;;;;;;;;
2022/01/03 11:16:47;;;;;;;4.82;1.02;;;;;;;11.20;72.61;99782.19;5897091;24;20056;-79
2022/01/03 11:23:38;;;;;;;;;;;;;;;;;;;;;
2022/01/03 11:26:46;;;;;;;;;;;;;;;;;;;;;
2022/01/03 11:33:50;;;;;;;;;;;;;;;;;;;;;
2022/01/03 11:37:09;;;;;;;9.05;1.38;;;;;;;11.49;71.27;99751.25;5915840;24;20084;-81
2022/01/03 11:40:11;;;;;;;;;;;;;;;;;;;;;
2022/01/03 12:07:34;;;;;;;;;;;;;;;;;;;;;
2022/01/03 13:23:53;;;;;;;10.90;1.65;;;;;;;11.67;69.68;99610.88;6160404;22;20031;-78
2022/01/03 13:26:33;;;;;;;4.65;0.95;;;;;;;11.48;69.00;99601.81;6154237;23;20039;-79
2022/01/03 13:29:10;;;;;;;9.98;1.00;;;;;;;11.57;69.10;99608.25;6179069;23;20423;-78
2022/01/03 13:32:00;;;;;;;6.40;1.20;;;;;;;11.50;69.76;99616.81;6181217;23;20005;-79
2022/01/03 13:34:44;;;;;;;2.90;1.02;;;;;;;11.46;69.36;99582.09;6176587;23;20012;-79
2022/01/03 13:37:23;;;;;;;;;;;;;;;;;;;;;
2022/01/03 13:40:04;;;;;;;8.10;1.20;;;;;;;11.68;69.24;99593.34;6179640;23;20092;-79
2022/01/03 13:42:43;;;;;;;8.05;1.00;;;;;;;11.63;69.17;99584.38;6179730;23;20004;-79
2022/01/03 13:50:53;;;;;;;8.38;1.45;;;;;;;11.48;69.15;99558.00;6182402;23;20510;-78
2022/01/03 13:53:19;;;;;;;4.30;1.30;;;;;;;11.67;69.04;99580.75;6181408;23;20012;-79
2022/01/03 13:56:02;;;;;;;;;;;;;;;;;;;;;
2022/01/03 13:58:39;;;;;;;12.93;1.27;;;;;;;11.53;69.43;99561.50;6182213;23;20499;-78
2022/01/03 14:01:14;;;;;;;13.63;2.70;;;;;;;11.51;69.34;99560.16;6177727;23;20666;-79
2022/01/03 14:47:27;;;;;;;9.63;1.23;;;;;;;11.25;71.13;99522.13;6027575;23;20014;-78
2022/01/03 15:36:32;;;;;;;;;;;;;;;;;;;;;
2022/01/03 16:10:36;;;;;;;13.27;2.13;;;;;;;10.20;77.57;99437.13;6100866;23;20024;-78
2022/01/03 16:13:05;;;;;;;6.45;2.05;;;;;;;10.19;78.17;99425.38;6158593;23;20137;-75
2022/01/03 16:16:23;;;;;;;;;;;;;;;;;;;;;
2022/01/03 16:19:14;;;;;;;14.05;2.85;;;;;;;10.07;78.59;99417.53;6145375;23;20061;-76
2022/01/03 16:21:47;;;;;;;11.07;1.92;;;;;;;10.06;77.89;99426.03;6126159;23;20010;-76
2022/01/03 16:24:16;;;;;;;9.27;2.08;;;;;;;10.16;78.05;99441.53;6151711;23;20425;-76
2022/01/03 16:26:51;;;;;;;8.63;1.52;;;;;;;10.08;78.28;99434.75;6128099;23;20009;-79
2022/01/03 16:30:07;;;;;;;;;;;;;;;;;;;;;
2022/01/03 16:32:36;;;;;;;7.43;1.83;;;;;;;10.03;78.34;99424.72;6147955;23;20098;-77
2022/01/03 16:35:16;;;;;;;;;;;;;;;;;;;;;
2022/01/03 16:37:42;;;;;;;12.45;1.20;;;;;;;10.20;78.15;99426.19;6137360;23;20332;-76
2022/01/03 16:40:15;;;;;;;3.38;1.10;;;;;;;10.15;77.77;99407.94;6150373;23;20037;-77
2022/01/03 16:42:58;;;;;;;6.72;1.05;;;;;;;10.22;77.72;99407.56;6155238;23;20711;-78
2022/01/03 16:45:49;;;;;;;7.95;1.13;;;;;;;10.09;77.67;99392.66;6109317;23;20380;-77
2022/01/03 16:48:44;;;;;;;3.42;1.23;;;;;;;10.11;77.48;99379.56;6153279;23;20408;-81
2022/01/03 17:38:31;;;;;;;2.83;1.83;;;;;;;9.95;77.41;99338.72;6148286;23;20052;-76
2022/01/03 17:40:57;;;;;;;4.55;1.70;;;;;;;9.93;77.46;99338.22;6152185;23;20421;-78
2022/01/03 17:43:25;;;;;;;2.88;1.42;;;;;;;9.87;77.49;99325.72;6123448;23;20005;-80
2022/01/03 17:46:00;;;;;;;6.97;1.75;;;;;;;9.87;77.36;99314.78;6147710;23;20056;-81
2022/01/03 17:48:29;;;;;;;13.35;3.28;;;;;;;9.92;78.34;99327.56;6127018;23;20008;-79
2022/01/03 17:51:05;;;;;;;;;;;;;;;;;;;;;
2022/01/03 17:54:00;;;;;;;6.55;5.10;;;;;;;9.85;78.43;99314.25;6152831;23;20077;-79
2022/01/03 17:56:53;;;;;;;;;;;;;;;;;;;;;
2022/01/03 17:59:19;;;;;;;4.68;4.13;;;;;;;9.81;78.49;99305.00;6151489;23;20088;-82
2022/01/03 18:01:44;;;;;;;8.70;3.03;;;;;;;9.70;78.10;99296.09;6123597;23;20051;-80
2022/01/03 18:04:17;;;;;;;3.67;3.15;;;;;;;9.79;78.82;99307.22;6122965;23;20009;-82
2022/01/03 18:06:53;;;;;;;;;;;;;;;;;;;;;
2022/01/03 18:09:21;;;;;;;3.95;2.15;;;;;;;9.68;78.37;99297.50;6154790;23;20072;-82
2022/01/03 18:11:47;;;;;;;9.05;3.03;;;;;;;9.71;78.33;99311.41;6101972;23;20052;-81
2022/01/03 18:14:33;;;;;;;2.25;1.80;;;;;;;9.76;78.90;99324.97;6156711;23;20009;-82
2022/01/03 18:17:01;;;;;;;;;;;;;;;9.82;78.78;99322.22;6130658;23;20001;-83
2022/01/03 18:19:43;;;;;;;1.17;0.93;;;;;;;9.60;78.29;99299.75;6129433;23;19912;-78
2022/01/03 18:22:12;;;;;;;0.80;0.80;;;;;;;9.65;78.74;99300.81;6130545;23;20433;-78
2022/01/03 18:24:39;;;;;;;2.05;0.65;;;;;;;9.76;79.21;99314.06;6128727;23;20010;-78
2022/01/03 18:27:24;;;;;;;;;;;;;;;;;;;;;
2022/01/03 18:29:50;;;;;;;0.25;0.20;;;;;;;9.64;78.92;99293.69;6133776;23;20076;-76
2022/01/03 18:32:19;;;;;;;0.35;0.32;;;;;;;9.79;78.76;99318.13;6132678;23;20005;-80
2022/01/03 18:34:47;;;;;;;0.38;0.30;;;;;;;9.56;79.13;99285.06;6129619;23;20016;-79
2022/01/03 18:37:13;;;;;;;0.60;0.60;;;;;;;9.72;78.86;99317.66;6127372;23;20025;-81
2022/01/03 18:39:39;;;;;;;0.20;0.20;;;;;;;9.60;78.69;99294.28;6183473;23;20013;-80
2022/01/03 18:42:15;;;;;;;0.35;0.20;;;;;;;9.59;79.07;99295.41;6183392;23;20100;-80
2022/01/03 18:44:40;;;;;;;0.68;0.32;;;;;;;9.67;78.98;99295.88;6186947;23;20076;-81
2022/01/03 18:47:16;;;;;;;;;;;;;;;;;;;;;
2022/01/03 18:49:53;;;;;;;;;;;;;;;;;;;;;
2022/01/03 18:52:19;;;;;;;2.13;1.40;;;;;;;9.74;79.21;99301.81;6188915;23;20020;-81
2022/01/03 18:54:54;;;;;;;0.82;0.73;;;;;;;9.58;79.11;99274.66;6189483;23;20048;-81
2022/01/03 18:57:20;;;;;;;0.75;0.35;;;;;;;9.54;78.83;99268.16;6184578;23;20092;-79
2022/01/03 19:00:01;;;;;;;0.85;0.40;;;;;;;9.71;79.18;99294.19;6162514;23;20016;-81
2022/01/03 19:03:19;;;;;;;0.43;0.40;;;;;;;9.65;78.58;99284.41;6166085;23;20475;-81
2022/01/03 19:05:36;;;;;;;0.43;0.15;;;;;;;9.73;78.93;99286.53;6174034;23;20012;-81
2022/01/03 19:08:14;;;;;;;0.32;0.20;;;;;;;9.71;79.31;99280.53;6183627;23;20080;-80
2022/01/03 19:14:28;;;;;;;0.25;0.17;;;;;;;9.56;79.21;99249.59;6155583;23;20060;-79
2022/01/03 19:17:09;;;;;;;;;;;;;;;;;;;;;
2022/01/03 19:20:04;;;;;;;;;;;;;;;;;;;;;
2022/01/03 19:22:43;;;;;;;;;;;;;;;;;;;;;
2022/01/03 19:25:26;;;;;;;;;;;;;;;;;;;;;
2022/01/03 19:27:55;;;;;;;0.47;0.30;;;;;;;9.40;79.25;99239.88;6179395;23;20096;-76
2022/01/03 19:30:21;;;;;;;0.75;0.50;;;;;;;9.46;79.37;99249.66;6179709;23;20009;-77
2022/01/03 19:38:52;;;;;;;;;;;;;;;;;;;;;